createdAt,value
2023-04-02T00:02:23.278Z,66.58
2023-04-02T00:05:19.696Z,65.83
2023-04-02T00:07:53.765Z,66.54
2023-04-02T00:10:31.092Z,65.98
2023-04-02T00:13:10.107Z,66.34
2023-04-02T00:15:38.305Z,65.77
2023-04-02T00:18:05.726Z,67.12
2023-04-02T00:20:36.476Z,66.61
2023-04-02T00:23:03.805Z,66.33
2023-04-02T00:25:35.279Z,66.71
2023-04-02T00:28:03.697Z,68.16
2023-04-02T00:30:31.034Z,66.99
2023-04-02T00:32:58.351Z,66.48
2023-04-02T00:35:27.328Z,67.16
2023-04-02T00:37:54.833Z,67.35
2023-04-02T00:40:28.547Z,67.19
2023-04-02T00:42:58.053Z,69.30
2023-04-02T00:45:29.966Z,68.81
2023-04-02T00:47:58.686Z,70.78
2023-04-02T00:50:34.879Z,71.65
2023-04-02T00:53:05.358Z,71.58
2023-04-02T00:55:40.012Z,70.65
2023-04-02T00:58:27.728Z,70.47
2023-04-02T01:00:54.978Z,70.87
2023-04-02T01:03:28.730Z,71.40
2023-04-02T01:06:01.664Z,72.42
2023-04-02T01:08:41.906Z,71.80
2023-04-02T01:11:34.478Z,73.52
2023-04-02T01:14:23.106Z,73.70
2023-04-02T01:16:50.415Z,75.02
2023-04-02T01:19:45.145Z,74.14
2023-04-02T01:22:30.888Z,75.53
2023-04-02T01:24:58.298Z,76.12
2023-04-02T01:27:39.786Z,76.22
2023-04-02T01:30:07.784Z,75.52
2023-04-02T01:32:35.116Z,74.11
2023-04-02T01:35:02.548Z,74.31
2023-04-02T01:37:36.825Z,74.29
2023-04-02T01:40:17.262Z,74.43
2023-04-02T01:43:26.910Z,74.58
2023-04-02T01:45:54.148Z,74.55
2023-04-02T01:48:24.812Z,74.77
2023-04-02T01:50:54.965Z,75.62
2023-04-02T01:53:23.192Z,74.93
2023-04-02T01:55:52.500Z,75.30
2023-04-02T01:58:25.611Z,74.27
2023-04-02T02:01:03.613Z,74.80
2023-04-02T02:03:31.962Z,74.69
2023-04-02T02:05:59.616Z,75.14
2023-04-02T02:08:52.108Z,75.38
2023-04-02T02:11:21.663Z,75.10
2023-04-02T02:14:01.342Z,75.28
2023-04-02T02:16:29.500Z,75.72
2023-04-02T02:18:59.313Z,75.02
2023-04-02T02:21:38.251Z,75.37
2023-04-02T02:24:07.894Z,75.43
2023-04-02T02:26:35.929Z,75.24
2023-04-02T02:29:03.530Z,74.85
2023-04-02T02:31:31.234Z,75.28
2023-04-02T02:34:24.660Z,74.84
2023-04-02T02:37:16.360Z,74.94
2023-04-02T02:39:44.741Z,74.03
2023-04-02T02:42:14.712Z,75.91
2023-04-02T02:44:44.668Z,76.02
2023-04-02T02:47:19.710Z,75.78
2023-04-02T02:49:50.039Z,75.35
2023-04-02T02:52:26.186Z,75.80
2023-04-02T02:55:09.772Z,75.67
2023-04-02T02:58:00.917Z,75.82
2023-04-02T03:00:33.743Z,76.27
2023-04-02T03:03:02.659Z,75.40
2023-04-02T03:05:31.992Z,75.54
2023-04-02T03:08:06.675Z,75.19
2023-04-02T03:10:37.226Z,75.58
2023-04-02T03:13:26.901Z,74.87
2023-04-02T03:16:21.087Z,75.74
2023-04-02T03:19:13.502Z,74.40
2023-04-02T03:21:49.484Z,74.95
2023-04-02T03:24:27.189Z,74.69
2023-04-02T03:26:58.420Z,74.72
2023-04-02T03:29:29.737Z,75.07
2023-04-02T03:32:00.342Z,75.74
2023-04-02T03:34:33.702Z,75.53
2023-04-02T03:37:09.075Z,75.87
2023-04-02T03:39:51.249Z,75.15
2023-04-02T03:42:25.283Z,74.57
2023-04-02T03:45:00.658Z,74.62
2023-04-02T03:47:36.870Z,75.09
2023-04-02T03:50:16.068Z,74.99
2023-04-02T03:52:43.766Z,75.36
2023-04-02T03:55:17.457Z,75.05
2023-04-02T03:58:00.888Z,74.95
2023-04-02T04:00:44.724Z,74.70
2023-04-02T04:03:13.557Z,74.52
2023-04-02T04:05:53.536Z,74.97
2023-04-02T04:08:29.319Z,75.83
2023-04-02T04:10:57.973Z,76.31
2023-04-02T04:13:45.662Z,74.83
2023-04-02T04:16:16.882Z,76.10
2023-04-02T04:18:56.988Z,75.83
2023-04-02T04:21:37.770Z,78.01
2023-04-02T04:24:22.914Z,77.17
2023-04-02T04:27:10.082Z,76.94
2023-04-02T04:29:58.291Z,78.06
2023-04-02T04:32:52.771Z,77.68
2023-04-02T04:35:32.943Z,76.51
2023-04-02T04:38:12.195Z,76.00
2023-04-02T04:40:52.446Z,77.19
2023-04-02T04:43:32.610Z,76.87
2023-04-02T04:46:22.407Z,77.29
2023-04-02T04:48:54.510Z,77.15
2023-04-02T04:51:45.587Z,77.62
2023-04-02T04:54:14.660Z,78.49
2023-04-02T04:56:51.417Z,77.63
2023-04-02T04:59:24.446Z,77.99
2023-04-02T05:01:57.824Z,76.71
2023-04-02T05:04:34.229Z,76.69
2023-04-02T05:07:23.721Z,76.07
2023-04-02T05:10:15.747Z,75.64
2023-04-02T05:13:01.862Z,76.83
2023-04-02T05:15:34.432Z,76.42
2023-04-02T05:18:26.410Z,76.89
2023-04-02T05:21:14.177Z,75.41
2023-04-02T05:23:54.216Z,74.92
2023-04-02T05:26:24.858Z,74.80
2023-04-02T05:29:25.070Z,74.46
2023-04-02T05:32:01.254Z,73.96
2023-04-02T05:34:31.649Z,74.31
2023-04-02T05:36:59.748Z,73.20
2023-04-02T05:39:27.870Z,72.58
2023-04-02T05:42:07.455Z,72.65
2023-04-02T05:45:09.537Z,72.86
2023-04-02T05:47:41.149Z,73.06
2023-04-02T05:50:30.737Z,72.79
2023-04-02T05:53:11.160Z,72.91
2023-04-02T05:56:03.836Z,72.90
2023-04-02T05:58:36.765Z,73.02
2023-04-02T06:01:45.837Z,72.99
2023-04-02T06:04:27.587Z,72.74
2023-04-02T06:07:03.628Z,72.49
2023-04-02T06:09:45.134Z,72.66
2023-04-02T06:12:18.181Z,72.47
2023-04-02T06:14:45.899Z,71.94
2023-04-02T06:17:18.653Z,72.57
2023-04-02T06:19:47.874Z,71.57
2023-04-02T06:22:25.226Z,71.37
2023-04-02T06:25:00.734Z,70.88
2023-04-02T06:27:28.432Z,71.09
2023-04-02T06:30:00.200Z,70.39
2023-04-02T06:32:30.708Z,70.46
2023-04-02T06:34:58.313Z,70.60
2023-04-02T06:37:30.450Z,69.12
2023-04-02T06:40:17.872Z,69.31
2023-04-02T06:42:46.152Z,69.47
2023-04-02T06:45:23.898Z,69.26
2023-04-02T06:48:14.885Z,69.78
2023-04-02T06:50:49.192Z,70.15
2023-04-02T06:53:23.699Z,70.16
2023-04-02T06:56:01.319Z,70.79
2023-04-02T06:58:30.738Z,70.22
2023-04-02T07:00:58.038Z,69.63
2023-04-02T07:03:32.490Z,70.13
2023-04-02T07:06:06.978Z,70.28
2023-04-02T07:08:35.465Z,69.93
2023-04-02T07:11:02.807Z,70.39
2023-04-02T07:13:30.122Z,69.87
2023-04-02T07:15:57.484Z,69.62
2023-04-02T07:18:27.901Z,69.02
2023-04-02T07:20:56.116Z,69.00
2023-04-02T07:23:24.099Z,69.02
2023-04-02T07:25:52.836Z,68.72
2023-04-02T07:28:22.395Z,68.00
2023-04-02T07:30:50.288Z,67.03
2023-04-02T07:33:18.983Z,67.40
2023-04-02T07:35:46.640Z,68.36
2023-04-02T07:38:13.985Z,69.33
2023-04-02T07:40:41.403Z,69.92
2023-04-02T07:43:08.756Z,70.22
2023-04-02T07:45:36.404Z,70.75
2023-04-02T07:48:07.454Z,71.11
2023-04-02T07:50:34.834Z,70.09
2023-04-02T07:53:02.155Z,70.26
2023-04-02T07:55:29.425Z,69.56
2023-04-02T07:57:58.496Z,68.74
2023-04-02T08:00:26.742Z,68.54
2023-04-02T08:02:54.172Z,67.77
2023-04-02T08:05:22.572Z,67.12
2023-04-02T08:07:54.850Z,66.21
2023-04-02T08:10:22.253Z,66.26
2023-04-02T08:12:49.855Z,66.56
2023-04-02T08:15:17.210Z,66.26
2023-04-02T08:17:44.555Z,66.04
2023-04-02T08:20:22.310Z,65.28
2023-04-02T08:22:49.772Z,65.98
2023-04-02T08:25:17.294Z,64.84
2023-04-02T08:27:47.215Z,64.55
2023-04-02T08:30:14.739Z,64.33
2023-04-02T08:32:42.133Z,64.00
2023-04-02T08:35:11.076Z,63.29
2023-04-02T08:37:38.353Z,62.60
2023-04-02T08:40:07.486Z,62.94
2023-04-02T08:42:51.975Z,62.60
2023-04-02T08:45:24.957Z,62.84
2023-04-02T08:47:55.529Z,62.43
2023-04-02T08:50:35.637Z,62.32
2023-04-02T08:53:05.149Z,63.37
2023-04-02T08:56:05.753Z,63.59
2023-04-02T08:58:33.185Z,65.34
2023-04-02T09:01:01.930Z,66.33
2023-04-02T09:03:32.526Z,66.58
2023-04-02T09:05:59.857Z,65.24
2023-04-02T09:08:27.492Z,65.69
2023-04-02T09:10:55.903Z,67.02
2023-04-02T09:13:24.687Z,67.01
2023-04-02T09:15:56.517Z,68.08
2023-04-02T09:18:23.852Z,67.83
2023-04-02T09:20:51.217Z,67.38
2023-04-02T09:23:20.137Z,66.92
2023-04-02T09:26:03.012Z,66.56
2023-04-02T09:28:31.756Z,65.20
2023-04-02T09:31:18.455Z,64.49
2023-04-02T09:33:47.153Z,65.44
2023-04-02T09:36:37.141Z,65.39
2023-04-02T09:39:07.028Z,64.99
2023-04-02T09:41:36.918Z,64.29
2023-04-02T09:44:24.338Z,63.92
2023-04-02T09:46:54.523Z,63.38
2023-04-02T09:49:23.751Z,62.91
2023-04-02T09:52:06.146Z,62.91
2023-04-02T09:54:33.488Z,64.95
2023-04-02T09:57:04.618Z,64.67
2023-04-02T09:59:31.900Z,64.30
2023-04-02T10:02:01.533Z,63.70
2023-04-02T10:04:48.137Z,62.12
2023-04-02T10:07:38.936Z,62.49
2023-04-02T10:10:27.161Z,62.32
2023-04-02T10:12:59.415Z,62.63
2023-04-02T10:15:58.986Z,62.13
2023-04-02T10:18:31.084Z,59.74
2023-04-02T10:20:58.481Z,59.75
2023-04-02T10:23:27.820Z,58.48
2023-04-02T10:26:09.105Z,57.67
2023-04-02T10:28:42.574Z,58.58
2023-04-02T10:31:22.895Z,58.64
2023-04-02T10:33:51.837Z,58.22
2023-04-02T10:36:31.675Z,58.37
2023-04-02T10:39:34.453Z,56.90
2023-04-02T10:42:01.803Z,57.72
2023-04-02T10:44:32.066Z,57.77
2023-04-02T10:47:18.309Z,58.32
2023-04-02T10:49:54.925Z,56.78
2023-04-02T10:52:28.927Z,56.93
2023-04-02T10:54:58.810Z,57.09
2023-04-02T10:57:37.974Z,54.87
2023-04-02T11:00:11.456Z,55.22
2023-04-02T11:02:44.132Z,54.92
2023-04-02T11:05:36.375Z,53.05
2023-04-02T11:08:18.475Z,52.01
2023-04-02T11:10:59.298Z,51.76
2023-04-02T11:13:52.613Z,51.11
2023-04-02T11:16:20.246Z,50.84
2023-04-02T11:19:15.873Z,50.50
2023-04-02T11:21:58.693Z,49.36
2023-04-02T11:24:37.309Z,49.53
2023-04-02T11:27:11.229Z,47.99
2023-04-02T11:30:18.204Z,48.92
2023-04-02T11:32:49.327Z,48.01
2023-04-02T11:35:32.048Z,48.46
2023-04-02T11:38:23.120Z,49.40
2023-04-02T11:40:57.584Z,48.74
2023-04-02T11:43:34.213Z,49.14
2023-04-02T11:46:16.700Z,48.56
2023-04-02T11:48:43.971Z,48.66
2023-04-02T11:51:23.141Z,50.19
2023-04-02T11:53:51.606Z,52.00
2023-04-02T11:56:32.364Z,53.19
2023-04-02T11:59:06.443Z,51.17
2023-04-02T12:01:58.217Z,50.46
2023-04-02T12:04:46.122Z,51.85
2023-04-02T12:07:17.560Z,51.00
2023-04-02T12:09:51.188Z,51.37
2023-04-02T12:12:24.363Z,50.42
2023-04-02T12:14:52.742Z,50.32
2023-04-02T12:17:28.625Z,50.83
2023-04-02T12:20:09.665Z,52.06
2023-04-02T12:22:48.037Z,51.78
2023-04-02T12:25:31.777Z,51.26
2023-04-02T12:28:05.225Z,49.59
2023-04-02T12:30:32.601Z,48.09
2023-04-02T12:33:20.428Z,49.18
2023-04-02T12:35:48.579Z,48.89
2023-04-02T12:38:24.581Z,47.58
2023-04-02T12:40:56.868Z,47.86
2023-04-02T12:43:31.140Z,47.89
2023-04-02T12:46:00.425Z,47.88
2023-04-02T12:48:27.994Z,47.92
2023-04-02T12:50:55.692Z,46.25
2023-04-02T12:53:35.151Z,44.84
2023-04-02T12:56:02.531Z,45.72
2023-04-02T12:58:29.688Z,44.73
2023-04-02T13:01:23.668Z,44.33
2023-04-02T13:04:01.056Z,42.96
2023-04-02T13:06:28.358Z,42.70
2023-04-02T13:08:55.611Z,42.19
2023-04-02T13:11:23.171Z,42.00
2023-04-02T13:13:50.477Z,42.01
2023-04-02T13:16:17.873Z,41.00
2023-04-02T13:18:46.514Z,41.39
2023-04-02T13:21:16.770Z,41.21
2023-04-02T13:23:44.253Z,41.17
2023-04-02T13:26:18.769Z,40.01
2023-04-02T13:28:58.967Z,39.98
2023-04-02T13:31:26.545Z,39.23
2023-04-02T13:33:53.834Z,38.72
2023-04-02T13:36:21.234Z,38.25
2023-04-02T13:38:48.471Z,38.38
2023-04-02T13:41:26.516Z,38.38
2023-04-02T13:43:54.434Z,37.47
2023-04-02T13:46:23.541Z,38.20
2023-04-02T13:48:51.427Z,38.53
2023-04-02T13:51:19.306Z,41.19
2023-04-02T13:53:47.625Z,43.19
2023-04-02T13:56:14.933Z,43.21
2023-04-02T13:58:42.195Z,44.12
2023-04-02T14:01:09.478Z,42.90
2023-04-02T14:03:36.856Z,43.46
2023-04-02T14:06:10.229Z,43.94
2023-04-02T14:08:59.671Z,44.93
2023-04-02T14:11:47.516Z,45.67
2023-04-02T14:14:36.345Z,49.12
2023-04-02T14:17:29.598Z,51.86
2023-04-02T14:20:12.115Z,52.04
2023-04-02T14:22:52.017Z,53.27
2023-04-02T14:25:57.709Z,54.60
2023-04-02T14:28:29.940Z,56.17
2023-04-02T14:31:18.953Z,56.73
2023-04-02T14:34:03.046Z,59.15
2023-04-02T14:36:58.712Z,60.74
2023-04-02T14:39:34.841Z,64.76
2023-04-02T14:42:04.602Z,65.71
2023-04-02T14:44:35.276Z,67.85
2023-04-02T14:47:11.547Z,69.48
2023-04-02T14:49:40.053Z,72.13
2023-04-02T14:52:16.298Z,71.89
2023-04-02T14:54:43.423Z,72.40
2023-04-02T14:57:10.605Z,73.89
2023-04-02T14:59:44.637Z,74.73
2023-04-02T15:02:30.870Z,76.38
2023-04-02T15:05:14.720Z,78.47
2023-04-02T15:08:04.263Z,79.42
2023-04-02T15:10:37.138Z,81.04
2023-04-02T15:13:06.752Z,79.43
2023-04-02T15:15:46.840Z,80.17
2023-04-02T15:18:15.910Z,81.00
2023-04-02T15:21:16.674Z,78.99
2023-04-02T15:23:59.159Z,78.81
2023-04-02T15:26:27.127Z,78.79
2023-04-02T15:29:25.927Z,80.15
2023-04-02T15:32:01.292Z,80.90
2023-04-02T15:34:37.568Z,83.21
2023-04-02T15:37:13.151Z,83.05
2023-04-02T15:40:03.197Z,83.41
2023-04-02T15:42:39.215Z,83.42
2023-04-02T15:45:19.403Z,83.01
2023-04-02T15:48:17.407Z,82.01
2023-04-02T15:50:50.396Z,81.83
2023-04-02T15:53:30.155Z,82.13
2023-04-02T15:56:38.393Z,82.33
2023-04-02T15:59:28.827Z,81.77
2023-04-02T16:02:38.572Z,81.76
2023-04-02T16:05:47.494Z,81.68
2023-04-02T16:08:38.918Z,80.17
2023-04-02T16:11:12.524Z,81.92
2023-04-02T16:13:40.679Z,80.58
2023-04-02T16:16:19.089Z,80.86
2023-04-02T16:19:15.972Z,80.90
2023-04-02T16:21:49.293Z,78.75
2023-04-02T16:24:16.593Z,79.67
2023-04-02T16:27:17.736Z,79.47
2023-04-02T16:30:03.601Z,79.48
2023-04-02T16:32:48.229Z,79.17
2023-04-02T16:35:40.750Z,79.54
2023-04-02T16:38:24.398Z,78.67
2023-04-02T16:41:07.751Z,78.20
2023-04-02T16:43:54.754Z,79.01
2023-04-02T16:46:38.789Z,79.52
2023-04-02T16:49:19.684Z,78.50
2023-04-02T16:52:02.210Z,79.14
2023-04-02T16:54:38.610Z,79.49
2023-04-02T16:57:21.020Z,79.66
2023-04-02T17:00:06.612Z,79.24
2023-04-02T17:02:42.179Z,81.26
2023-04-02T17:05:15.553Z,80.45
2023-04-02T17:08:01.720Z,79.59
2023-04-02T17:10:33.516Z,80.24
2023-04-02T17:13:13.030Z,79.91
2023-04-02T17:15:40.380Z,79.53
2023-04-02T17:18:16.489Z,79.56
2023-04-02T17:20:43.760Z,79.59
2023-04-02T17:23:14.536Z,79.67
2023-04-02T17:25:48.348Z,80.10
2023-04-02T17:28:17.175Z,78.41
2023-04-02T17:30:52.611Z,78.66
2023-04-02T17:33:22.021Z,77.16
2023-04-02T17:35:58.161Z,78.27
2023-04-02T17:38:34.656Z,77.93
2023-04-02T17:41:15.155Z,78.62
2023-04-02T17:43:57.435Z,77.43
2023-04-02T17:46:39.402Z,78.28
2023-04-02T17:49:12.557Z,77.97
2023-04-02T17:51:42.276Z,76.93
2023-04-02T17:54:09.468Z,77.70
2023-04-02T17:56:42.355Z,76.95
2023-04-02T17:59:46.070Z,77.22
2023-04-02T18:02:23.885Z,77.82
2023-04-02T18:05:12.149Z,76.95
2023-04-02T18:07:57.987Z,77.08
2023-04-02T18:10:33.771Z,76.53
2023-04-02T18:13:08.556Z,77.10
2023-04-02T18:15:38.734Z,75.10
2023-04-02T18:18:39.341Z,76.53
2023-04-02T18:21:12.403Z,76.40
2023-04-02T18:23:59.118Z,76.42
2023-04-02T18:26:39.375Z,76.76
2023-04-02T18:29:43.604Z,76.07
2023-04-02T18:32:32.326Z,75.36
2023-04-02T18:35:02.329Z,75.63
2023-04-02T18:37:54.113Z,76.52
2023-04-02T18:40:33.243Z,74.87
2023-04-02T18:43:08.735Z,76.29
2023-04-02T18:45:57.524Z,75.06
2023-04-02T18:48:49.579Z,75.67
2023-04-02T18:51:19.958Z,76.01
2023-04-02T18:53:47.562Z,76.09
2023-04-02T18:56:17.266Z,76.50
2023-04-02T18:58:58.111Z,76.62
2023-04-02T19:01:34.104Z,76.25
2023-04-02T19:04:17.306Z,75.97
2023-04-02T19:06:46.708Z,77.01
2023-04-02T19:09:15.257Z,75.38
2023-04-02T19:11:42.655Z,77.05
2023-04-02T19:14:14.381Z,76.73
2023-04-02T19:17:01.584Z,76.89
2023-04-02T19:19:35.810Z,75.76
2023-04-02T19:22:18.269Z,75.90
2023-04-02T19:24:56.929Z,75.38
2023-04-02T19:27:37.029Z,75.50
2023-04-02T19:30:28.786Z,75.34
2023-04-02T19:33:13.886Z,75.05
2023-04-02T19:35:46.897Z,74.85
2023-04-02T19:38:39.342Z,73.87
2023-04-02T19:41:27.310Z,74.51
2023-04-02T19:43:55.010Z,74.09
2023-04-02T19:46:23.305Z,73.59
2023-04-02T19:48:57.384Z,73.44
2023-04-02T19:51:24.675Z,73.34
2023-04-02T19:53:51.935Z,73.49
2023-04-02T19:56:19.258Z,73.17
2023-04-02T19:58:46.596Z,73.07
2023-04-02T20:01:13.904Z,73.16
2023-04-02T20:03:41.263Z,72.35
2023-04-02T20:06:08.573Z,72.34
2023-04-02T20:08:38.692Z,71.79
2023-04-02T20:11:06.356Z,70.98
2023-04-02T20:13:33.999Z,71.34
2023-04-02T20:16:02.049Z,71.06
2023-04-02T20:18:29.834Z,70.68
2023-04-02T20:20:57.121Z,71.22
2023-04-02T20:23:24.975Z,71.04
2023-04-02T20:25:53.208Z,69.85
2023-04-02T20:28:21.326Z,70.36
2023-04-02T20:30:50.281Z,70.29
2023-04-02T20:33:18.606Z,70.30
2023-04-02T20:35:46.067Z,70.20
2023-04-02T20:38:13.440Z,70.88
2023-04-02T20:40:41.640Z,73.33
2023-04-02T20:43:09.615Z,70.57
2023-04-02T20:45:37.356Z,69.80
2023-04-02T20:48:04.928Z,69.51
2023-04-02T20:50:32.581Z,70.39
2023-04-02T20:52:59.864Z,69.87
2023-04-02T20:55:27.098Z,69.65
2023-04-02T20:57:54.607Z,71.15
2023-04-02T21:00:22.620Z,70.48
2023-04-02T21:02:49.974Z,70.76
2023-04-02T21:05:17.285Z,69.92
2023-04-02T21:07:44.591Z,70.25
2023-04-02T21:10:11.834Z,69.83
2023-04-02T21:12:39.158Z,69.36
2023-04-02T21:15:07.039Z,69.47
2023-04-02T21:17:34.321Z,68.70
2023-04-02T21:20:02.137Z,67.89
2023-04-02T21:22:29.402Z,67.66
2023-04-02T21:24:56.670Z,67.54
2023-04-02T21:27:26.055Z,66.93
2023-04-02T21:29:53.493Z,67.21
2023-04-02T21:32:21.948Z,67.45
2023-04-02T21:34:49.571Z,67.10
2023-04-02T21:37:16.808Z,67.09
2023-04-02T21:39:44.028Z,67.55
2023-04-02T21:42:11.727Z,67.54
2023-04-02T21:44:38.981Z,67.03
2023-04-02T21:47:06.329Z,67.48
2023-04-02T21:49:33.801Z,68.36
2023-04-02T21:52:01.155Z,68.07
2023-04-02T21:54:29.390Z,66.95
2023-04-02T21:56:56.927Z,67.90
2023-04-02T21:59:24.336Z,67.64
2023-04-02T22:01:52.262Z,67.66
2023-04-02T22:04:21.346Z,68.91
2023-04-02T22:06:48.821Z,69.09
2023-04-02T22:09:17.937Z,69.36
2023-04-02T22:11:47.004Z,68.40
2023-04-02T22:14:14.394Z,69.73
2023-04-02T22:16:41.961Z,68.72
2023-04-02T22:19:11.793Z,68.99
2023-04-02T22:21:39.080Z,68.12
2023-04-02T22:24:09.072Z,68.30
2023-04-02T22:26:36.522Z,68.77
2023-04-02T22:29:04.501Z,68.66
2023-04-02T22:31:33.350Z,67.76
2023-04-02T22:34:01.165Z,68.39
2023-04-02T22:36:28.695Z,68.51
2023-04-02T22:38:56.822Z,68.32
2023-04-02T22:41:28.374Z,68.69
2023-04-02T22:43:56.276Z,67.13
2023-04-02T22:46:23.838Z,67.09
2023-04-02T22:48:51.209Z,65.32
2023-04-02T22:51:19.938Z,65.39
2023-04-02T22:53:47.413Z,64.67
2023-04-02T22:56:22.690Z,64.00
2023-04-02T22:58:50.001Z,63.08
2023-04-02T23:01:21.385Z,61.55
2023-04-02T23:03:48.952Z,62.89
2023-04-02T23:06:17.198Z,62.12
2023-04-02T23:08:44.692Z,61.97
2023-04-02T23:11:22.894Z,61.96
2023-04-02T23:13:51.329Z,63.40
2023-04-02T23:16:18.855Z,62.19
2023-04-02T23:18:49.238Z,62.68
2023-04-02T23:21:17.192Z,62.44
2023-04-02T23:23:44.570Z,62.65
2023-04-02T23:26:13.883Z,62.52
2023-04-02T23:28:41.232Z,62.05
2023-04-02T23:31:11.061Z,62.35
2023-04-02T23:33:38.353Z,61.98
2023-04-02T23:36:32.546Z,62.67
2023-04-02T23:39:01.683Z,62.69
2023-04-02T23:41:29.700Z,62.13
2023-04-02T23:43:57.156Z,62.13
2023-04-02T23:46:24.776Z,63.19
2023-04-02T23:48:52.403Z,62.79
2023-04-02T23:51:19.872Z,63.35
2023-04-02T23:53:47.735Z,63.50
2023-04-02T23:56:15.404Z,63.15
2023-04-02T23:58:42.709Z,63.57
